sensor_id;sensor_type;location;lat;lon;timestamp;P1;durP1;ratioP1;P2;durP2;ratioP2
23290;SDS011;11814;44.686;10.842;2022-09-09T00:01:11;13.60;;;7.45;;
23290;SDS011;11814;44.686;10.842;2022-09-09T00:03:53;12.45;;;8.35;;
23290;SDS011;11814;44.686;10.842;2022-09-09T00:06:28;15.60;;;7.35;;
23290;SDS011;11814;44.686;10.842;2022-09-09T00:11:34;11.85;;;7.80;;
23290;SDS011;11814;44.686;10.842;2022-09-09T00:16:52;11.93;;;7.53;;
23290;SDS011;11814;44.686;10.842;2022-09-09T00:21:48;12.48;;;7.38;;
23290;SDS011;11814;44.686;10.842;2022-09-09T00:27:23;11.70;;;7.18;;
23290;SDS011;11814;44.686;10.842;2022-09-09T00:32:38;12.95;;;7.30;;
23290;SDS011;11814;44.686;10.842;2022-09-09T00:35:14;16.95;;;8.43;;
23290;SDS011;11814;44.686;10.842;2022-09-09T00:37:42;13.98;;;8.18;;
23290;SDS011;11814;44.686;10.842;2022-09-09T00:40:22;14.60;;;8.30;;
23290;SDS011;11814;44.686;10.842;2022-09-09T00:43:00;12.38;;;8.43;;
23290;SDS011;11814;44.686;10.842;2022-09-09T00:51:17;14.55;;;8.98;;
23290;SDS011;11814;44.686;10.842;2022-09-09T01:02:49;21.85;;;9.80;;
23290;SDS011;11814;44.686;10.842;2022-09-09T01:05:20;15.73;;;10.10;;
23290;SDS011;11814;44.686;10.842;2022-09-09T01:07:52;23.27;;;9.73;;
23290;SDS011;11814;44.686;10.842;2022-09-09T01:10:40;14.27;;;9.15;;
23290;SDS011;11814;44.686;10.842;2022-09-09T01:13:20;17.00;;;9.40;;
23290;SDS011;11814;44.686;10.842;2022-09-09T01:15:59;10.65;;;8.25;;
23290;SDS011;11814;44.686;10.842;2022-09-09T01:18:34;20.02;;;8.80;;
23290;SDS011;11814;44.686;10.842;2022-09-09T01:24:04;12.32;;;8.23;;
23290;SDS011;11814;44.686;10.842;2022-09-09T01:26:41;14.20;;;8.90;;
23290;SDS011;11814;44.686;10.842;2022-09-09T01:29:12;14.00;;;8.30;;
23290;SDS011;11814;44.686;10.842;2022-09-09T01:31:41;14.63;;;8.20;;
23290;SDS011;11814;44.686;10.842;2022-09-09T01:34:13;13.95;;;9.02;;
23290;SDS011;11814;44.686;10.842;2022-09-09T01:39:21;12.82;;;9.75;;
23290;SDS011;11814;44.686;10.842;2022-09-09T01:41:46;16.98;;;9.13;;
23290;SDS011;11814;44.686;10.842;2022-09-09T01:44:12;14.88;;;10.13;;
23290;SDS011;11814;44.686;10.842;2022-09-09T01:46:38;15.95;;;9.77;;
23290;SDS011;11814;44.686;10.842;2022-09-09T01:49:05;15.75;;;9.85;;
23290;SDS011;11814;44.686;10.842;2022-09-09T01:51:33;17.05;;;9.40;;
23290;SDS011;11814;44.686;10.842;2022-09-09T01:54:00;18.17;;;10.18;;
23290;SDS011;11814;44.686;10.842;2022-09-09T02:07:28;16.85;;;9.45;;
23290;SDS011;11814;44.686;10.842;2022-09-09T02:10:21;14.93;;;9.50;;
23290;SDS011;11814;44.686;10.842;2022-09-09T02:12:53;14.55;;;9.18;;
23290;SDS011;11814;44.686;10.842;2022-09-09T02:15:29;11.60;;;8.05;;
23290;SDS011;11814;44.686;10.842;2022-09-09T02:18:04;14.05;;;9.27;;
23290;SDS011;11814;44.686;10.842;2022-09-09T02:20:36;15.45;;;8.77;;
23290;SDS011;11814;44.686;10.842;2022-09-09T02:23:04;11.32;;;8.52;;
23290;SDS011;11814;44.686;10.842;2022-09-09T02:25:32;14.13;;;9.07;;
23290;SDS011;11814;44.686;10.842;2022-09-09T02:28:00;14.90;;;9.63;;
23290;SDS011;11814;44.686;10.842;2022-09-09T02:30:28;19.00;;;9.82;;
23290;SDS011;11814;44.686;10.842;2022-09-09T02:32:57;16.20;;;11.15;;
23290;SDS011;11814;44.686;10.842;2022-09-09T02:35:26;16.88;;;12.40;;
23290;SDS011;11814;44.686;10.842;2022-09-09T02:37:56;19.13;;;13.02;;
23290;SDS011;11814;44.686;10.842;2022-09-09T02:40:26;20.52;;;13.43;;
23290;SDS011;11814;44.686;10.842;2022-09-09T02:42:52;25.02;;;14.55;;
23290;SDS011;11814;44.686;10.842;2022-09-09T02:45:20;21.70;;;14.23;;
23290;SDS011;11814;44.686;10.842;2022-09-09T02:47:51;20.45;;;15.50;;
23290;SDS011;11814;44.686;10.842;2022-09-09T02:50:41;21.90;;;15.23;;
23290;SDS011;11814;44.686;10.842;2022-09-09T02:53:17;22.38;;;14.32;;
23290;SDS011;11814;44.686;10.842;2022-09-09T02:55:47;19.05;;;13.57;;
23290;SDS011;11814;44.686;10.842;2022-09-09T02:58:16;21.15;;;13.05;;
23290;SDS011;11814;44.686;10.842;2022-09-09T03:00:47;18.88;;;12.05;;
23290;SDS011;11814;44.686;10.842;2022-09-09T03:03:14;16.88;;;12.85;;
23290;SDS011;11814;44.686;10.842;2022-09-09T03:05:42;17.23;;;12.50;;
23290;SDS011;11814;44.686;10.842;2022-09-09T03:08:08;21.02;;;11.80;;
23290;SDS011;11814;44.686;10.842;2022-09-09T03:10:34;26.83;;;14.90;;
23290;SDS011;11814;44.686;10.842;2022-09-09T03:13:00;21.63;;;14.60;;
23290;SDS011;11814;44.686;10.842;2022-09-09T03:15:26;20.75;;;15.88;;
23290;SDS011;11814;44.686;10.842;2022-09-09T03:17:55;20.55;;;15.18;;
23290;SDS011;11814;44.686;10.842;2022-09-09T03:20:22;18.52;;;13.80;;
23290;SDS011;11814;44.686;10.842;2022-09-09T03:22:52;17.33;;;12.77;;
23290;SDS011;11814;44.686;10.842;2022-09-09T03:25:18;17.33;;;14.02;;
23290;SDS011;11814;44.686;10.842;2022-09-09T03:27:45;14.38;;;10.68;;
23290;SDS011;11814;44.686;10.842;2022-09-09T03:30:11;9.38;;;8.20;;
23290;SDS011;11814;44.686;10.842;2022-09-09T03:32:36;6.95;;;6.35;;
23290;SDS011;11814;44.686;10.842;2022-09-09T03:35:02;12.27;;;9.93;;
23290;SDS011;11814;44.686;10.842;2022-09-09T03:37:28;15.48;;;11.43;;
23290;SDS011;11814;44.686;10.842;2022-09-09T03:39:54;22.58;;;19.55;;
23290;SDS011;11814;44.686;10.842;2022-09-09T03:42:20;23.38;;;16.23;;
23290;SDS011;11814;44.686;10.842;2022-09-09T03:44:46;21.10;;;15.75;;
23290;SDS011;11814;44.686;10.842;2022-09-09T03:47:14;26.70;;;18.20;;
23290;SDS011;11814;44.686;10.842;2022-09-09T03:49:41;23.42;;;17.30;;
23290;SDS011;11814;44.686;10.842;2022-09-09T03:52:08;27.48;;;18.75;;
23290;SDS011;11814;44.686;10.842;2022-09-09T03:54:34;24.95;;;17.67;;
23290;SDS011;11814;44.686;10.842;2022-09-09T03:57:00;24.77;;;18.80;;
23290;SDS011;11814;44.686;10.842;2022-09-09T03:59:26;23.23;;;16.35;;
23290;SDS011;11814;44.686;10.842;2022-09-09T04:01:52;32.20;;;21.65;;
23290;SDS011;11814;44.686;10.842;2022-09-09T04:04:18;34.33;;;22.58;;
23290;SDS011;11814;44.686;10.842;2022-09-09T04:06:45;24.25;;;19.05;;
23290;SDS011;11814;44.686;10.842;2022-09-09T04:09:11;30.00;;;19.92;;
23290;SDS011;11814;44.686;10.842;2022-09-09T04:11:36;24.60;;;18.33;;
23290;SDS011;11814;44.686;10.842;2022-09-09T04:14:02;25.90;;;19.83;;
23290;SDS011;11814;44.686;10.842;2022-09-09T04:16:30;32.05;;;21.25;;
23290;SDS011;11814;44.686;10.842;2022-09-09T04:18:57;27.40;;;21.20;;
23290;SDS011;11814;44.686;10.842;2022-09-09T04:21:24;25.02;;;19.00;;
23290;SDS011;11814;44.686;10.842;2022-09-09T04:23:50;17.90;;;13.07;;
23290;SDS011;11814;44.686;10.842;2022-09-09T04:26:17;18.00;;;12.55;;
23290;SDS011;11814;44.686;10.842;2022-09-09T04:28:43;23.58;;;15.77;;
23290;SDS011;11814;44.686;10.842;2022-09-09T04:31:19;22.48;;;17.80;;
23290;SDS011;11814;44.686;10.842;2022-09-09T04:33:47;24.10;;;17.23;;
23290;SDS011;11814;44.686;10.842;2022-09-09T04:36:14;24.73;;;16.63;;
23290;SDS011;11814;44.686;10.842;2022-09-09T04:38:41;21.50;;;17.35;;
23290;SDS011;11814;44.686;10.842;2022-09-09T04:41:07;26.77;;;18.75;;
23290;SDS011;11814;44.686;10.842;2022-09-09T04:43:33;26.55;;;19.10;;
23290;SDS011;11814;44.686;10.842;2022-09-09T04:45:59;30.02;;;19.38;;
23290;SDS011;11814;44.686;10.842;2022-09-09T04:48:24;24.42;;;19.77;;
23290;SDS011;11814;44.686;10.842;2022-09-09T04:51:09;29.33;;;21.02;;
23290;SDS011;11814;44.686;10.842;2022-09-09T04:53:37;27.98;;;21.25;;
23290;SDS011;11814;44.686;10.842;2022-09-09T04:58:41;32.50;;;20.63;;
23290;SDS011;11814;44.686;10.842;2022-09-09T05:03:49;32.08;;;21.35;;
23290;SDS011;11814;44.686;10.842;2022-09-09T05:06:17;27.88;;;20.17;;
23290;SDS011;11814;44.686;10.842;2022-09-09T05:08:44;29.33;;;21.50;;
23290;SDS011;11814;44.686;10.842;2022-09-09T05:11:17;27.27;;;20.63;;
23290;SDS011;11814;44.686;10.842;2022-09-09T05:13:43;38.33;;;21.15;;
23290;SDS011;11814;44.686;10.842;2022-09-09T05:16:09;28.35;;;20.60;;
23290;SDS011;11814;44.686;10.842;2022-09-09T05:18:39;30.48;;;19.23;;
23290;SDS011;11814;44.686;10.842;2022-09-09T05:21:05;30.83;;;20.45;;
23290;SDS011;11814;44.686;10.842;2022-09-09T05:23:32;28.67;;;20.95;;
23290;SDS011;11814;44.686;10.842;2022-09-09T05:26:01;35.35;;;22.23;;
23290;SDS011;11814;44.686;10.842;2022-09-09T05:28:28;25.10;;;18.73;;
23290;SDS011;11814;44.686;10.842;2022-09-09T05:30:56;26.48;;;18.08;;
23290;SDS011;11814;44.686;10.842;2022-09-09T05:33:26;23.67;;;16.55;;
23290;SDS011;11814;44.686;10.842;2022-09-09T05:35:56;22.77;;;14.45;;
23290;SDS011;11814;44.686;10.842;2022-09-09T05:38:32;31.95;;;16.70;;
23290;SDS011;11814;44.686;10.842;2022-09-09T05:40:59;23.85;;;17.65;;
23290;SDS011;11814;44.686;10.842;2022-09-09T05:43:27;26.33;;;17.00;;
23290;SDS011;11814;44.686;10.842;2022-09-09T05:46:04;27.88;;;17.08;;
23290;SDS011;11814;44.686;10.842;2022-09-09T05:48:31;22.77;;;16.92;;
23290;SDS011;11814;44.686;10.842;2022-09-09T05:50:59;25.15;;;16.27;;
23290;SDS011;11814;44.686;10.842;2022-09-09T05:53:28;19.98;;;14.10;;
23290;SDS011;11814;44.686;10.842;2022-09-09T05:56:03;21.60;;;14.70;;
23290;SDS011;11814;44.686;10.842;2022-09-09T05:58:35;22.38;;;14.68;;
23290;SDS011;11814;44.686;10.842;2022-09-09T06:03:32;25.98;;;16.95;;
23290;SDS011;11814;44.686;10.842;2022-09-09T06:06:06;28.15;;;19.55;;
23290;SDS011;11814;44.686;10.842;2022-09-09T06:08:33;31.58;;;20.08;;
23290;SDS011;11814;44.686;10.842;2022-09-09T06:11:05;31.50;;;20.63;;
23290;SDS011;11814;44.686;10.842;2022-09-09T06:13:33;33.58;;;19.23;;
23290;SDS011;11814;44.686;10.842;2022-09-09T06:16:00;26.75;;;19.45;;
23290;SDS011;11814;44.686;10.842;2022-09-09T06:18:26;25.27;;;16.90;;
23290;SDS011;11814;44.686;10.842;2022-09-09T06:23:25;31.85;;;17.23;;
23290;SDS011;11814;44.686;10.842;2022-09-09T06:25:51;30.35;;;15.35;;
23290;SDS011;11814;44.686;10.842;2022-09-09T06:28:25;27.77;;;14.25;;
23290;SDS011;11814;44.686;10.842;2022-09-09T06:30:56;25.38;;;13.70;;
23290;SDS011;11814;44.686;10.842;2022-09-09T06:33:23;24.80;;;12.63;;
23290;SDS011;11814;44.686;10.842;2022-09-09T06:35:52;19.25;;;11.85;;
23290;SDS011;11814;44.686;10.842;2022-09-09T06:38:19;19.15;;;11.55;;
23290;SDS011;11814;44.686;10.842;2022-09-09T06:40:56;25.25;;;13.07;;
23290;SDS011;11814;44.686;10.842;2022-09-09T06:43:23;26.73;;;14.05;;
23290;SDS011;11814;44.686;10.842;2022-09-09T06:45:54;23.25;;;13.50;;
23290;SDS011;11814;44.686;10.842;2022-09-09T06:48:21;19.95;;;13.82;;
23290;SDS011;11814;44.686;10.842;2022-09-09T06:50:46;24.05;;;15.38;;
23290;SDS011;11814;44.686;10.842;2022-09-09T06:53:17;22.70;;;13.95;;
23290;SDS011;11814;44.686;10.842;2022-09-09T06:55:44;25.27;;;15.02;;
23290;SDS011;11814;44.686;10.842;2022-09-09T06:58:10;24.45;;;14.50;;
23290;SDS011;11814;44.686;10.842;2022-09-09T07:00:36;28.30;;;14.88;;
23290;SDS011;11814;44.686;10.842;2022-09-09T07:03:04;26.08;;;15.07;;
23290;SDS011;11814;44.686;10.842;2022-09-09T07:05:31;23.77;;;13.15;;
23290;SDS011;11814;44.686;10.842;2022-09-09T07:07:57;22.77;;;12.38;;
23290;SDS011;11814;44.686;10.842;2022-09-09T07:10:23;26.88;;;12.90;;
23290;SDS011;11814;44.686;10.842;2022-09-09T07:12:52;20.40;;;11.60;;
23290;SDS011;11814;44.686;10.842;2022-09-09T07:15:18;28.88;;;13.77;;
23290;SDS011;11814;44.686;10.842;2022-09-09T07:17:44;31.52;;;18.75;;
23290;SDS011;11814;44.686;10.842;2022-09-09T07:20:11;31.15;;;16.45;;
23290;SDS011;11814;44.686;10.842;2022-09-09T07:22:37;28.77;;;17.27;;
23290;SDS011;11814;44.686;10.842;2022-09-09T07:25:03;29.10;;;17.75;;
23290;SDS011;11814;44.686;10.842;2022-09-09T07:27:29;26.52;;;17.85;;
23290;SDS011;11814;44.686;10.842;2022-09-09T07:29:55;26.33;;;19.48;;
23290;SDS011;11814;44.686;10.842;2022-09-09T07:32:21;25.98;;;17.98;;
23290;SDS011;11814;44.686;10.842;2022-09-09T07:34:46;24.23;;;16.42;;
23290;SDS011;11814;44.686;10.842;2022-09-09T07:37:12;23.90;;;15.90;;
23290;SDS011;11814;44.686;10.842;2022-09-09T07:39:38;24.73;;;17.13;;
23290;SDS011;11814;44.686;10.842;2022-09-09T07:42:04;30.67;;;19.10;;
23290;SDS011;11814;44.686;10.842;2022-09-09T07:44:30;29.92;;;18.02;;
23290;SDS011;11814;44.686;10.842;2022-09-09T07:46:59;31.20;;;18.05;;
23290;SDS011;11814;44.686;10.842;2022-09-09T07:49:25;25.00;;;16.77;;
23290;SDS011;11814;44.686;10.842;2022-09-09T07:51:51;25.85;;;17.10;;
23290;SDS011;11814;44.686;10.842;2022-09-09T07:54:17;28.65;;;17.23;;
23290;SDS011;11814;44.686;10.842;2022-09-09T07:56:48;27.77;;;17.80;;
23290;SDS011;11814;44.686;10.842;2022-09-09T07:59:15;25.70;;;14.23;;
23290;SDS011;11814;44.686;10.842;2022-09-09T08:01:43;28.80;;;16.38;;
23290;SDS011;11814;44.686;10.842;2022-09-09T08:04:14;22.83;;;15.32;;
23290;SDS011;11814;44.686;10.842;2022-09-09T08:06:43;29.20;;;17.58;;
23290;SDS011;11814;44.686;10.842;2022-09-09T08:09:11;24.48;;;17.17;;
23290;SDS011;11814;44.686;10.842;2022-09-09T08:11:38;26.27;;;16.52;;
23290;SDS011;11814;44.686;10.842;2022-09-09T08:14:04;27.60;;;16.92;;
23290;SDS011;11814;44.686;10.842;2022-09-09T08:16:33;30.27;;;17.90;;
23290;SDS011;11814;44.686;10.842;2022-09-09T08:19:02;27.45;;;18.48;;
23290;SDS011;11814;44.686;10.842;2022-09-09T08:21:29;28.23;;;18.20;;
23290;SDS011;11814;44.686;10.842;2022-09-09T08:23:57;28.45;;;17.73;;
23290;SDS011;11814;44.686;10.842;2022-09-09T08:26:24;26.52;;;18.88;;
23290;SDS011;11814;44.686;10.842;2022-09-09T08:28:53;27.10;;;19.48;;
23290;SDS011;11814;44.686;10.842;2022-09-09T08:31:27;25.67;;;19.10;;
23290;SDS011;11814;44.686;10.842;2022-09-09T08:33:55;28.55;;;17.83;;
23290;SDS011;11814;44.686;10.842;2022-09-09T08:36:25;28.05;;;16.13;;
23290;SDS011;11814;44.686;10.842;2022-09-09T08:38:53;22.70;;;16.30;;
23290;SDS011;11814;44.686;10.842;2022-09-09T08:49:46;25.50;;;18.85;;
23290;SDS011;11814;44.686;10.842;2022-09-09T08:52:25;23.40;;;16.88;;
23290;SDS011;11814;44.686;10.842;2022-09-09T08:54:56;22.52;;;15.35;;
23290;SDS011;11814;44.686;10.842;2022-09-09T08:57:38;25.10;;;16.38;;
23290;SDS011;11814;44.686;10.842;2022-09-09T09:00:04;22.83;;;15.45;;
23290;SDS011;11814;44.686;10.842;2022-09-09T09:05:51;24.02;;;16.83;;
23290;SDS011;11814;44.686;10.842;2022-09-09T09:08:33;24.45;;;15.88;;
23290;SDS011;11814;44.686;10.842;2022-09-09T09:11:07;21.98;;;15.02;;
23290;SDS011;11814;44.686;10.842;2022-09-09T09:13:41;23.42;;;15.40;;
23290;SDS011;11814;44.686;10.842;2022-09-09T09:16:25;21.98;;;14.30;;
23290;SDS011;11814;44.686;10.842;2022-09-09T09:18:58;17.45;;;13.07;;
23290;SDS011;11814;44.686;10.842;2022-09-09T09:21:34;20.52;;;13.02;;
23290;SDS011;11814;44.686;10.842;2022-09-09T09:26:57;23.25;;;15.65;;
23290;SDS011;11814;44.686;10.842;2022-09-09T09:29:26;21.02;;;13.88;;
23290;SDS011;11814;44.686;10.842;2022-09-09T09:31:52;19.52;;;12.23;;
23290;SDS011;11814;44.686;10.842;2022-09-09T09:34:21;15.25;;;10.38;;
23290;SDS011;11814;44.686;10.842;2022-09-09T09:36:57;15.98;;;9.70;;
23290;SDS011;11814;44.686;10.842;2022-09-09T09:39:29;17.17;;;12.23;;
23290;SDS011;11814;44.686;10.842;2022-09-09T09:41:56;16.27;;;11.43;;
23290;SDS011;11814;44.686;10.842;2022-09-09T09:44:29;17.02;;;10.93;;
23290;SDS011;11814;44.686;10.842;2022-09-09T09:47:07;16.92;;;10.90;;
23290;SDS011;11814;44.686;10.842;2022-09-09T09:49:56;17.00;;;11.55;;
23290;SDS011;11814;44.686;10.842;2022-09-09T09:52:27;13.93;;;9.88;;
23290;SDS011;11814;44.686;10.842;2022-09-09T09:54:55;14.90;;;10.50;;
23290;SDS011;11814;44.686;10.842;2022-09-09T09:57:27;12.68;;;7.45;;
23290;SDS011;11814;44.686;10.842;2022-09-09T10:02:37;16.70;;;10.65;;
23290;SDS011;11814;44.686;10.842;2022-09-09T10:05:12;14.57;;;10.23;;
23290;SDS011;11814;44.686;10.842;2022-09-09T10:07:43;14.55;;;8.18;;
23290;SDS011;11814;44.686;10.842;2022-09-09T10:10:56;13.18;;;8.75;;
23290;SDS011;11814;44.686;10.842;2022-09-09T10:13:19;14.80;;;8.30;;
23290;SDS011;11814;44.686;10.842;2022-09-09T10:26:44;10.40;;;7.82;;
23290;SDS011;11814;44.686;10.842;2022-09-09T10:34:45;10.43;;;3.50;;
23290;SDS011;11814;44.686;10.842;2022-09-09T10:40:42;8.75;;;3.63;;
23290;SDS011;11814;44.686;10.842;2022-09-09T10:46:26;6.80;;;2.45;;
23290;SDS011;11814;44.686;10.842;2022-09-09T10:53:45;6.22;;;2.65;;
23290;SDS011;11814;44.686;10.842;2022-09-09T10:56:16;10.15;;;2.58;;
23290;SDS011;11814;44.686;10.842;2022-09-09T10:59:00;11.55;;;2.40;;
23290;SDS011;11814;44.686;10.842;2022-09-09T11:01:42;4.47;;;1.90;;
23290;SDS011;11814;44.686;10.842;2022-09-09T11:06:59;6.45;;;1.42;;
23290;SDS011;11814;44.686;10.842;2022-09-09T11:09:31;7.13;;;1.92;;
23290;SDS011;11814;44.686;10.842;2022-09-09T11:12:02;8.38;;;1.35;;
23290;SDS011;11814;44.686;10.842;2022-09-09T11:14:36;5.38;;;1.40;;
23290;SDS011;11814;44.686;10.842;2022-09-09T11:17:17;6.07;;;1.08;;
23290;SDS011;11814;44.686;10.842;2022-09-09T11:19:46;3.10;;;1.17;;
23290;SDS011;11814;44.686;10.842;2022-09-09T11:22:32;4.80;;;1.10;;
23290;SDS011;11814;44.686;10.842;2022-09-09T11:25:14;5.70;;;1.13;;
23290;SDS011;11814;44.686;10.842;2022-09-09T11:39:13;3.85;;;1.08;;
23290;SDS011;11814;44.686;10.842;2022-09-09T11:41:48;6.10;;;1.45;;
23290;SDS011;11814;44.686;10.842;2022-09-09T11:44:18;5.05;;;0.80;;
23290;SDS011;11814;44.686;10.842;2022-09-09T11:46:51;4.93;;;0.95;;
23290;SDS011;11814;44.686;10.842;2022-09-09T11:49:39;9.90;;;1.45;;
23290;SDS011;11814;44.686;10.842;2022-09-09T11:54:50;12.57;;;2.92;;
23290;SDS011;11814;44.686;10.842;2022-09-09T11:57:26;7.50;;;3.75;;
23290;SDS011;11814;44.686;10.842;2022-09-09T11:59:59;9.68;;;3.78;;
23290;SDS011;11814;44.686;10.842;2022-09-09T12:02:26;9.38;;;3.55;;
23290;SDS011;11814;44.686;10.842;2022-09-09T12:04:57;9.75;;;3.70;;
23290;SDS011;11814;44.686;10.842;2022-09-09T12:07:38;9.90;;;3.30;;
23290;SDS011;11814;44.686;10.842;2022-09-09T12:12:47;15.60;;;3.78;;
23290;SDS011;11814;44.686;10.842;2022-09-09T12:15:21;7.15;;;2.90;;
23290;SDS011;11814;44.686;10.842;2022-09-09T12:17:54;7.50;;;2.60;;
23290;SDS011;11814;44.686;10.842;2022-09-09T12:20:23;9.68;;;2.45;;
23290;SDS011;11814;44.686;10.842;2022-09-09T12:23:02;8.15;;;2.47;;
23290;SDS011;11814;44.686;10.842;2022-09-09T12:28:22;6.30;;;1.80;;
23290;SDS011;11814;44.686;10.842;2022-09-09T12:34:16;8.65;;;1.40;;
23290;SDS011;11814;44.686;10.842;2022-09-09T12:36:49;2.28;;;0.80;;
23290;SDS011;11814;44.686;10.842;2022-09-09T12:39:32;6.75;;;1.33;;
23290;SDS011;11814;44.686;10.842;2022-09-09T12:42:22;5.40;;;1.23;;
23290;SDS011;11814;44.686;10.842;2022-09-09T12:44:53;9.48;;;1.55;;
23290;SDS011;11814;44.686;10.842;2022-09-09T12:47:46;4.78;;;1.20;;
23290;SDS011;11814;44.686;10.842;2022-09-09T12:50:18;3.45;;;1.27;;
23290;SDS011;11814;44.686;10.842;2022-09-09T12:52:48;7.75;;;1.13;;
23290;SDS011;11814;44.686;10.842;2022-09-09T12:55:20;3.58;;;1.20;;
23290;SDS011;11814;44.686;10.842;2022-09-09T12:57:50;8.32;;;1.50;;
23290;SDS011;11814;44.686;10.842;2022-09-09T13:02:46;4.95;;;1.27;;
23290;SDS011;11814;44.686;10.842;2022-09-09T13:05:36;5.78;;;1.42;;
23290;SDS011;11814;44.686;10.842;2022-09-09T13:08:10;2.85;;;1.00;;
23290;SDS011;11814;44.686;10.842;2022-09-09T13:10:39;7.47;;;1.33;;
23290;SDS011;11814;44.686;10.842;2022-09-09T13:13:15;5.38;;;0.80;;
23290;SDS011;11814;44.686;10.842;2022-09-09T13:15:52;7.53;;;1.38;;
23290;SDS011;11814;44.686;10.842;2022-09-09T13:18:23;5.03;;;1.48;;
23290;SDS011;11814;44.686;10.842;2022-09-09T13:20:53;4.10;;;1.13;;
23290;SDS011;11814;44.686;10.842;2022-09-09T13:23:22;4.18;;;1.00;;
23290;SDS011;11814;44.686;10.842;2022-09-09T13:26:04;4.70;;;1.33;;
23290;SDS011;11814;44.686;10.842;2022-09-09T13:28:43;2.85;;;0.88;;
23290;SDS011;11814;44.686;10.842;2022-09-09T13:31:21;4.45;;;0.80;;
23290;SDS011;11814;44.686;10.842;2022-09-09T13:33:55;6.25;;;0.82;;
23290;SDS011;11814;44.686;10.842;2022-09-09T13:36:30;6.88;;;1.08;;
23290;SDS011;11814;44.686;10.842;2022-09-09T13:38:59;5.20;;;0.90;;
23290;SDS011;11814;44.686;10.842;2022-09-09T13:41:34;9.98;;;1.20;;
23290;SDS011;11814;44.686;10.842;2022-09-09T13:44:02;6.78;;;1.02;;
23290;SDS011;11814;44.686;10.842;2022-09-09T13:46:31;4.25;;;0.90;;
23290;SDS011;11814;44.686;10.842;2022-09-09T13:54:10;4.90;;;1.00;;
23290;SDS011;11814;44.686;10.842;2022-09-09T13:56:37;3.40;;;0.80;;
23290;SDS011;11814;44.686;10.842;2022-09-09T13:59:04;5.93;;;1.00;;
23290;SDS011;11814;44.686;10.842;2022-09-09T14:01:34;3.92;;;0.98;;
23290;SDS011;11814;44.686;10.842;2022-09-09T14:04:00;4.18;;;0.90;;
23290;SDS011;11814;44.686;10.842;2022-09-09T14:06:26;8.05;;;1.20;;
23290;SDS011;11814;44.686;10.842;2022-09-09T14:08:55;4.43;;;1.15;;
23290;SDS011;11814;44.686;10.842;2022-09-09T14:11:21;7.55;;;1.10;;
23290;SDS011;11814;44.686;10.842;2022-09-09T14:13:47;5.20;;;1.20;;
23290;SDS011;11814;44.686;10.842;2022-09-09T14:16:17;5.65;;;1.25;;
23290;SDS011;11814;44.686;10.842;2022-09-09T14:18:44;6.22;;;1.23;;
23290;SDS011;11814;44.686;10.842;2022-09-09T14:21:10;3.58;;;1.10;;
23290;SDS011;11814;44.686;10.842;2022-09-09T14:23:36;4.05;;;1.13;;
23290;SDS011;11814;44.686;10.842;2022-09-09T14:26:03;4.50;;;1.17;;
23290;SDS011;11814;44.686;10.842;2022-09-09T14:28:32;6.40;;;1.17;;
23290;SDS011;11814;44.686;10.842;2022-09-09T14:30:59;6.43;;;1.10;;
23290;SDS011;11814;44.686;10.842;2022-09-09T14:33:26;5.85;;;1.00;;
23290;SDS011;11814;44.686;10.842;2022-09-09T14:35:57;3.50;;;1.20;;
23290;SDS011;11814;44.686;10.842;2022-09-09T14:38:24;5.78;;;1.27;;
23290;SDS011;11814;44.686;10.842;2022-09-09T14:40:50;5.72;;;1.08;;
23290;SDS011;11814;44.686;10.842;2022-09-09T14:43:16;4.43;;;1.20;;
23290;SDS011;11814;44.686;10.842;2022-09-09T14:45:42;4.40;;;1.08;;
23290;SDS011;11814;44.686;10.842;2022-09-09T14:48:08;5.07;;;1.13;;
23290;SDS011;11814;44.686;10.842;2022-09-09T14:50:34;4.07;;;1.42;;
23290;SDS011;11814;44.686;10.842;2022-09-09T14:53:01;4.38;;;1.00;;
23290;SDS011;11814;44.686;10.842;2022-09-09T14:55:27;3.53;;;1.20;;
23290;SDS011;11814;44.686;10.842;2022-09-09T14:57:54;7.18;;;1.00;;
23290;SDS011;11814;44.686;10.842;2022-09-09T15:00:19;4.22;;;1.10;;
23290;SDS011;11814;44.686;10.842;2022-09-09T15:02:45;4.10;;;1.10;;
23290;SDS011;11814;44.686;10.842;2022-09-09T15:05:11;3.47;;;1.00;;
23290;SDS011;11814;44.686;10.842;2022-09-09T15:07:37;4.00;;;0.98;;
23290;SDS011;11814;44.686;10.842;2022-09-09T15:10:03;7.18;;;1.13;;
23290;SDS011;11814;44.686;10.842;2022-09-09T15:12:29;7.28;;;1.48;;
23290;SDS011;11814;44.686;10.842;2022-09-09T15:14:55;6.07;;;1.33;;
23290;SDS011;11814;44.686;10.842;2022-09-09T15:17:20;3.30;;;0.93;;
23290;SDS011;11814;44.686;10.842;2022-09-09T15:19:46;5.95;;;1.23;;
23290;SDS011;11814;44.686;10.842;2022-09-09T15:22:12;5.10;;;1.27;;
23290;SDS011;11814;44.686;10.842;2022-09-09T15:24:38;4.50;;;1.17;;
23290;SDS011;11814;44.686;10.842;2022-09-09T15:27:03;6.20;;;1.20;;
23290;SDS011;11814;44.686;10.842;2022-09-09T15:29:29;3.90;;;1.02;;
23290;SDS011;11814;44.686;10.842;2022-09-09T15:31:55;3.45;;;1.20;;
23290;SDS011;11814;44.686;10.842;2022-09-09T15:34:21;8.68;;;1.27;;
23290;SDS011;11814;44.686;10.842;2022-09-09T15:36:47;4.53;;;1.40;;
23290;SDS011;11814;44.686;10.842;2022-09-09T15:39:14;5.20;;;1.00;;
23290;SDS011;11814;44.686;10.842;2022-09-09T15:41:41;4.57;;;1.15;;
23290;SDS011;11814;44.686;10.842;2022-09-09T15:44:08;5.03;;;1.30;;
23290;SDS011;11814;44.686;10.842;2022-09-09T15:49:14;4.95;;;1.20;;
23290;SDS011;11814;44.686;10.842;2022-09-09T15:51:41;3.22;;;1.10;;
23290;SDS011;11814;44.686;10.842;2022-09-09T15:54:09;3.53;;;1.10;;
23290;SDS011;11814;44.686;10.842;2022-09-09T15:56:37;4.15;;;1.00;;
23290;SDS011;11814;44.686;10.842;2022-09-09T15:59:03;5.70;;;1.50;;
23290;SDS011;11814;44.686;10.842;2022-09-09T16:01:29;4.43;;;1.35;;
23290;SDS011;11814;44.686;10.842;2022-09-09T16:03:56;4.88;;;1.08;;
23290;SDS011;11814;44.686;10.842;2022-09-09T16:06:23;4.72;;;1.67;;
23290;SDS011;11814;44.686;10.842;2022-09-09T16:08:50;5.97;;;1.45;;
23290;SDS011;11814;44.686;10.842;2022-09-09T16:11:18;3.85;;;1.20;;
23290;SDS011;11814;44.686;10.842;2022-09-09T16:13:45;3.95;;;1.15;;
23290;SDS011;11814;44.686;10.842;2022-09-09T16:16:13;5.03;;;1.35;;
23290;SDS011;11814;44.686;10.842;2022-09-09T16:18:41;4.72;;;1.20;;
23290;SDS011;11814;44.686;10.842;2022-09-09T16:21:22;4.90;;;1.33;;
23290;SDS011;11814;44.686;10.842;2022-09-09T16:23:49;7.13;;;1.48;;
23290;SDS011;11814;44.686;10.842;2022-09-09T16:26:16;8.13;;;1.20;;
23290;SDS011;11814;44.686;10.842;2022-09-09T16:28:43;4.43;;;1.20;;
23290;SDS011;11814;44.686;10.842;2022-09-09T16:31:10;7.35;;;1.20;;
23290;SDS011;11814;44.686;10.842;2022-09-09T16:33:39;4.55;;;1.30;;
23290;SDS011;11814;44.686;10.842;2022-09-09T16:36:08;10.35;;;1.67;;
23290;SDS011;11814;44.686;10.842;2022-09-09T16:38:36;8.48;;;2.03;;
23290;SDS011;11814;44.686;10.842;2022-09-09T16:41:02;4.35;;;1.40;;
23290;SDS011;11814;44.686;10.842;2022-09-09T16:43:31;5.40;;;1.33;;
23290;SDS011;11814;44.686;10.842;2022-09-09T16:46:01;6.90;;;1.95;;
23290;SDS011;11814;44.686;10.842;2022-09-09T16:48:41;4.40;;;1.33;;
23290;SDS011;11814;44.686;10.842;2022-09-09T16:51:11;3.75;;;1.48;;
23290;SDS011;11814;44.686;10.842;2022-09-09T16:53:39;4.85;;;1.30;;